createdAt,value
2018-06-20T00:01:07.513Z,9.10
2018-06-20T00:03:38.087Z,11.83
2018-06-20T00:06:08.193Z,7.07
2018-06-20T00:08:42.970Z,12.13
2018-06-20T00:11:13.320Z,6.47
2018-06-20T00:13:44.566Z,9.53
2018-06-20T00:16:15.492Z,13.13
2018-06-20T00:18:47.797Z,7.60
2018-06-20T00:21:19.198Z,7.93
2018-06-20T00:23:50.229Z,8.20
2018-06-20T00:26:22.762Z,9.30
2018-06-20T00:28:53.692Z,8.80
2018-06-20T00:31:25.665Z,6.37
2018-06-20T00:33:57.147Z,7.77
2018-06-20T00:36:28.736Z,7.33
2018-06-20T00:38:59.529Z,8.00
2018-06-20T00:41:30.013Z,11.60
2018-06-20T00:44:00.190Z,8.17
2018-06-20T00:46:31.827Z,9.97
2018-06-20T00:49:03.991Z,7.70
2018-06-20T00:51:36.038Z,5.77
2018-06-20T00:54:07.242Z,7.03
2018-06-20T00:56:38.624Z,7.97
2018-06-20T00:59:08.952Z,7.00
2018-06-20T01:01:41.413Z,4.97
2018-06-20T01:04:14.613Z,5.97
2018-06-20T01:06:46.178Z,7.90
2018-06-20T01:09:17.737Z,6.37
2018-06-20T01:11:50.749Z,5.10
2018-06-20T01:14:24.562Z,6.83
2018-06-20T01:16:59.047Z,7.20
2018-06-20T01:19:32.711Z,5.90
2018-06-20T01:22:05.425Z,6.60
2018-06-20T01:24:37.026Z,5.50
2018-06-20T01:27:07.691Z,7.77
2018-06-20T01:29:38.390Z,6.53
2018-06-20T01:32:08.903Z,8.80
2018-06-20T01:34:39.567Z,8.73
2018-06-20T01:37:11.180Z,7.70
2018-06-20T01:39:43.203Z,6.67
2018-06-20T01:42:13.806Z,5.73
2018-06-20T01:44:44.929Z,6.73
2018-06-20T01:47:15.543Z,6.47
2018-06-20T01:49:45.808Z,6.80
2018-06-20T01:52:17.250Z,9.23
2018-06-20T01:54:47.352Z,7.63
2018-06-20T01:57:17.696Z,5.40
2018-06-20T01:59:47.931Z,4.63
2018-06-20T02:02:18.647Z,5.93
2018-06-20T02:04:49.578Z,7.33
2018-06-20T02:07:20.353Z,7.83
2018-06-20T02:09:51.043Z,7.33
2018-06-20T02:12:21.755Z,7.13
2018-06-20T02:14:52.044Z,8.00
2018-06-20T02:17:22.579Z,7.60
2018-06-20T02:19:52.696Z,4.93
2018-06-20T02:22:23.240Z,5.00
2018-06-20T02:24:53.989Z,6.50
2018-06-20T02:27:24.333Z,5.87
2018-06-20T02:29:54.452Z,5.07
2018-06-20T02:32:24.724Z,6.90
2018-06-20T02:34:54.905Z,6.93
2018-06-20T02:37:25.437Z,6.23
2018-06-20T02:39:55.910Z,6.17
2018-06-20T02:42:26.407Z,6.00
2018-06-20T02:44:57.588Z,4.90
2018-06-20T02:47:33.311Z,4.43
2018-06-20T02:50:04.424Z,6.67
2018-06-20T02:52:35.439Z,7.07
2018-06-20T02:55:05.954Z,8.30
2018-06-20T02:57:37.992Z,8.50
2018-06-20T03:00:08.199Z,4.87
2018-06-20T03:02:39.677Z,12.53
2018-06-20T03:05:10.553Z,5.83
2018-06-20T03:07:41.628Z,5.60
2018-06-20T03:10:11.931Z,7.23
2018-06-20T03:12:44.584Z,8.50
2018-06-20T03:15:16.896Z,5.37
2018-06-20T03:17:47.721Z,8.10
2018-06-20T03:20:18.659Z,7.33
2018-06-20T03:22:48.942Z,5.67
2018-06-20T03:25:19.321Z,6.57
2018-06-20T03:27:49.877Z,7.13
2018-06-20T03:30:20.447Z,8.20
2018-06-20T03:32:51.399Z,5.23
2018-06-20T03:35:22.313Z,7.63
2018-06-20T03:37:52.913Z,6.87
2018-06-20T03:40:24.706Z,9.40
2018-06-20T03:42:55.712Z,10.10
2018-06-20T03:45:27.122Z,7.23
2018-06-20T03:47:58.355Z,7.30
2018-06-20T03:50:29.890Z,8.63
2018-06-20T03:53:01.328Z,16.53
2018-06-20T03:55:31.599Z,41.60
2018-06-20T03:58:01.917Z,10.33
2018-06-20T04:00:32.224Z,13.60
2018-06-20T04:03:02.959Z,13.63
2018-06-20T04:05:33.809Z,15.47
2018-06-20T04:08:04.510Z,14.87
2018-06-20T04:10:34.930Z,17.00
2018-06-20T04:13:05.321Z,14.60
2018-06-20T04:15:35.776Z,17.20
2018-06-20T04:18:06.368Z,18.77
2018-06-20T04:20:37.368Z,20.57
2018-06-20T04:23:08.082Z,16.53
2018-06-20T04:25:39.231Z,18.63
2018-06-20T04:28:09.672Z,15.37
2018-06-20T04:30:40.409Z,20.57
2018-06-20T04:33:11.064Z,18.93
2018-06-20T04:35:41.487Z,17.83
2018-06-20T04:38:12.285Z,15.67
2018-06-20T04:40:42.823Z,18.43
2018-06-20T04:43:13.051Z,23.93
2018-06-20T04:45:43.768Z,19.57
2018-06-20T04:48:14.775Z,21.70
2018-06-20T04:50:45.158Z,21.17
2018-06-20T04:53:15.242Z,18.13
2018-06-20T04:55:45.788Z,19.30
2018-06-20T04:58:16.576Z,19.37
2018-06-20T05:00:47.190Z,25.90
2018-06-20T05:03:17.742Z,22.30
2018-06-20T05:05:47.921Z,21.07
2018-06-20T05:08:18.720Z,23.57
2018-06-20T05:10:49.367Z,22.87
2018-06-20T05:13:19.705Z,23.97
2018-06-20T05:15:50.527Z,20.97
2018-06-20T05:18:20.646Z,27.33
2018-06-20T05:20:51.289Z,21.63
2018-06-20T05:23:21.607Z,21.33
2018-06-20T05:25:52.067Z,23.80
2018-06-20T05:28:22.319Z,22.10
2018-06-20T05:30:54.121Z,19.60
2018-06-20T05:33:29.473Z,19.23
2018-06-20T05:36:01.745Z,24.30
2018-06-20T05:38:32.660Z,19.80
2018-06-20T05:41:04.481Z,18.67
2018-06-20T05:43:34.942Z,16.23
2018-06-20T05:46:05.980Z,19.50
2018-06-20T05:48:36.509Z,21.77
2018-06-20T05:51:06.783Z,15.70
2018-06-20T05:53:37.187Z,17.43
2018-06-20T05:56:08.065Z,17.40
2018-06-20T05:58:38.978Z,17.33
2018-06-20T06:01:09.280Z,15.20
2018-06-20T06:03:40.075Z,16.70
2018-06-20T06:06:15.814Z,18.27
2018-06-20T06:08:47.056Z,14.53
